createdAt,value
2018-10-12T00:00:46.419Z,964.52
2018-10-12T00:01:46.388Z,964.51
2018-10-12T00:02:46.403Z,964.55
2018-10-12T00:03:46.394Z,964.50
2018-10-12T00:04:46.401Z,964.57
2018-10-12T00:05:46.445Z,964.55
2018-10-12T00:06:46.404Z,964.57
2018-10-12T00:07:46.406Z,964.50
2018-10-12T00:08:46.410Z,964.52
2018-10-12T00:09:46.417Z,964.61
2018-10-12T00:10:46.413Z,964.55
2018-10-12T00:11:46.418Z,964.55
2018-10-12T00:12:46.425Z,964.59
2018-10-12T00:13:46.426Z,964.57
2018-10-12T00:14:46.427Z,964.56
2018-10-12T00:15:46.432Z,964.56
2018-10-12T00:16:46.433Z,964.59
2018-10-12T00:17:46.437Z,964.58
2018-10-12T00:18:46.441Z,964.57
2018-10-12T00:19:46.441Z,964.60
2018-10-12T00:20:46.453Z,964.63
2018-10-12T00:21:46.449Z,964.61
2018-10-12T00:22:46.453Z,964.65
2018-10-12T00:23:46.458Z,964.66
2018-10-12T00:24:46.458Z,964.66
2018-10-12T00:25:46.460Z,964.64
2018-10-12T00:26:46.484Z,964.66
2018-10-12T00:27:46.467Z,964.66
2018-10-12T00:28:46.467Z,964.65
2018-10-12T00:29:46.471Z,964.66
2018-10-12T00:30:46.474Z,964.69
2018-10-12T00:31:46.479Z,964.71
2018-10-12T00:32:46.482Z,964.76
2018-10-12T00:33:46.484Z,964.74
2018-10-12T00:34:46.487Z,964.78
2018-10-12T00:35:46.489Z,964.78
2018-10-12T00:36:46.490Z,964.80
2018-10-12T00:37:46.495Z,964.80
2018-10-12T00:38:46.498Z,964.88
2018-10-12T00:39:46.502Z,964.89
2018-10-12T00:40:46.504Z,964.84
2018-10-12T00:41:46.508Z,964.84
2018-10-12T00:42:46.508Z,964.86
2018-10-12T00:43:46.515Z,964.82
2018-10-12T00:44:46.531Z,964.82
2018-10-12T00:45:46.518Z,964.88
2018-10-12T00:46:46.523Z,964.90
2018-10-12T00:47:46.550Z,964.86
2018-10-12T00:48:46.531Z,964.88
2018-10-12T00:49:46.553Z,964.87
2018-10-12T00:50:46.533Z,964.86
2018-10-12T00:51:46.539Z,964.84
2018-10-12T00:52:46.540Z,964.83
2018-10-12T00:53:46.548Z,964.86
2018-10-12T00:54:46.549Z,964.86
2018-10-12T00:55:46.548Z,964.89
2018-10-12T00:56:46.552Z,964.91
2018-10-12T00:57:46.555Z,964.98
2018-10-12T00:58:46.558Z,964.94
2018-10-12T00:59:46.560Z,965.02
2018-10-12T01:00:46.564Z,965.03
2018-10-12T01:01:46.566Z,965.06
2018-10-12T01:02:46.568Z,965.08
2018-10-12T01:03:46.582Z,965.04
2018-10-12T01:04:46.577Z,965.10
2018-10-12T01:05:46.578Z,965.08
2018-10-12T01:06:46.696Z,965.06
2018-10-12T01:07:46.588Z,965.11
2018-10-12T01:08:46.592Z,965.12
2018-10-12T01:09:46.593Z,965.14
2018-10-12T01:10:46.593Z,965.14
2018-10-12T01:11:46.603Z,965.10
2018-10-12T01:12:46.611Z,965.09
2018-10-12T01:13:46.604Z,965.10
2018-10-12T01:14:46.607Z,965.14
2018-10-12T01:15:46.608Z,965.15
2018-10-12T01:16:46.613Z,965.17
2018-10-12T01:17:46.614Z,965.15
2018-10-12T01:18:46.615Z,965.19
2018-10-12T01:19:46.620Z,965.14
2018-10-12T01:20:46.621Z,965.18
2018-10-12T01:21:46.624Z,965.14
2018-10-12T01:22:46.659Z,965.19
2018-10-12T01:23:46.631Z,965.17
2018-10-12T01:24:46.635Z,965.20
2018-10-12T01:25:46.639Z,965.24
2018-10-12T01:26:46.640Z,965.22
2018-10-12T01:27:46.663Z,965.22
2018-10-12T01:28:46.652Z,965.22
2018-10-12T01:29:46.648Z,965.21
2018-10-12T01:30:46.651Z,965.22
2018-10-12T01:31:46.659Z,965.27
2018-10-12T01:32:46.653Z,965.21
2018-10-12T01:33:46.658Z,965.24
2018-10-12T01:34:46.664Z,965.25
2018-10-12T01:35:46.666Z,965.29
2018-10-12T01:36:46.669Z,965.31
2018-10-12T01:37:46.673Z,965.30
2018-10-12T01:38:46.678Z,965.30
2018-10-12T01:39:46.693Z,965.33
2018-10-12T01:40:46.679Z,965.30
2018-10-12T01:41:46.685Z,965.32
2018-10-12T01:42:46.689Z,965.32
2018-10-12T01:43:46.691Z,965.34
2018-10-12T01:44:46.694Z,965.32
2018-10-12T01:45:46.700Z,965.33
2018-10-12T01:46:46.700Z,965.37
2018-10-12T01:47:46.704Z,965.34
2018-10-12T01:48:46.706Z,965.33
2018-10-12T01:49:46.719Z,965.33
2018-10-12T01:50:46.716Z,965.35
2018-10-12T01:51:46.717Z,965.37
2018-10-12T01:52:46.718Z,965.39
2018-10-12T01:53:46.718Z,965.38
2018-10-12T01:54:46.723Z,965.39
2018-10-12T01:55:46.727Z,965.39
2018-10-12T01:56:46.730Z,965.40
2018-10-12T01:57:46.735Z,965.42
2018-10-12T01:58:46.738Z,965.42
2018-10-12T01:59:46.737Z,965.42
2018-10-12T02:00:46.743Z,965.45
2018-10-12T02:01:46.749Z,965.39
2018-10-12T02:02:46.748Z,965.43
2018-10-12T02:03:46.765Z,965.43
2018-10-12T02:04:46.757Z,965.42
2018-10-12T02:05:46.758Z,965.42
2018-10-12T02:06:46.759Z,965.42
2018-10-12T02:07:46.763Z,965.40
2018-10-12T02:08:46.766Z,965.35
2018-10-12T02:09:46.825Z,965.39
2018-10-12T02:10:46.770Z,965.41
2018-10-12T02:11:46.774Z,965.41
2018-10-12T02:12:46.775Z,965.45
2018-10-12T02:13:46.780Z,965.41
2018-10-12T02:14:46.783Z,965.48
2018-10-12T02:15:46.782Z,965.48
2018-10-12T02:16:46.789Z,965.52
2018-10-12T02:17:46.791Z,965.55
2018-10-12T02:18:46.792Z,965.54
2018-10-12T02:19:46.795Z,965.59
2018-10-12T02:20:46.801Z,965.63
2018-10-12T02:21:46.803Z,965.61
2018-10-12T02:22:46.806Z,965.65
2018-10-12T02:23:46.809Z,965.62
2018-10-12T02:24:46.813Z,965.65
2018-10-12T02:25:46.813Z,965.60
2018-10-12T02:26:46.816Z,965.63
2018-10-12T02:27:46.821Z,965.62
2018-10-12T02:28:46.834Z,965.63
2018-10-12T02:29:46.830Z,965.67
2018-10-12T02:30:46.836Z,965.65
2018-10-12T02:31:46.833Z,965.64
2018-10-12T02:32:46.837Z,965.66
2018-10-12T02:33:46.838Z,965.67
2018-10-12T02:34:46.842Z,965.70
2018-10-12T02:35:46.845Z,965.63
2018-10-12T02:36:46.849Z,965.70
2018-10-12T02:37:46.863Z,965.67
2018-10-12T02:38:46.852Z,965.68
2018-10-12T02:39:46.853Z,965.69
2018-10-12T02:40:46.856Z,965.70
2018-10-12T02:41:46.862Z,965.68
2018-10-12T02:42:46.865Z,965.68
2018-10-12T02:43:46.868Z,965.69
2018-10-12T02:44:46.871Z,965.70
2018-10-12T02:45:46.874Z,965.75
2018-10-12T02:46:46.880Z,965.73
2018-10-12T02:47:46.880Z,965.71
2018-10-12T02:48:46.886Z,965.76
2018-10-12T02:49:46.882Z,965.74
2018-10-12T02:50:46.885Z,965.74
2018-10-12T02:51:46.891Z,965.71
2018-10-12T02:52:46.898Z,965.74
2018-10-12T02:53:46.894Z,965.76
2018-10-12T02:54:46.902Z,965.74
2018-10-12T02:55:46.910Z,965.78
2018-10-12T02:56:46.903Z,965.78
2018-10-12T02:57:46.941Z,965.77
2018-10-12T02:58:46.908Z,965.77
2018-10-12T02:59:46.911Z,965.81
2018-10-12T03:00:46.915Z,965.83
2018-10-12T03:01:46.917Z,965.82
2018-10-12T03:02:46.921Z,965.85
2018-10-12T03:03:46.922Z,965.85
2018-10-12T03:04:46.926Z,965.86
2018-10-12T03:05:46.930Z,965.92
2018-10-12T03:06:46.941Z,965.92
2018-10-12T03:07:46.934Z,965.91
2018-10-12T03:08:46.937Z,965.93
2018-10-12T03:09:46.941Z,965.93
2018-10-12T03:10:46.943Z,965.93
2018-10-12T03:11:46.945Z,965.98
2018-10-12T03:12:46.948Z,965.94
2018-10-12T03:13:46.946Z,965.97
2018-10-12T03:14:46.963Z,965.94
2018-10-12T03:15:46.962Z,965.92
2018-10-12T03:16:46.967Z,965.92
2018-10-12T03:17:46.961Z,965.92
2018-10-12T03:18:46.962Z,965.91
2018-10-12T03:19:46.972Z,965.95
2018-10-12T03:20:46.972Z,965.95
2018-10-12T03:21:46.972Z,965.96
2018-10-12T03:22:46.975Z,966.02
2018-10-12T03:23:46.979Z,966.00
2018-10-12T03:24:46.980Z,966.00
2018-10-12T03:25:46.983Z,966.00
2018-10-12T03:26:46.984Z,966.00
2018-10-12T03:27:46.989Z,966.02
2018-10-12T03:28:46.994Z,966.07
2018-10-12T03:29:46.995Z,966.10
2018-10-12T03:30:46.999Z,966.13
2018-10-12T03:31:47.002Z,966.07
2018-10-12T03:32:47.004Z,966.08
2018-10-12T03:33:47.004Z,966.09
2018-10-12T03:34:47.009Z,966.09
2018-10-12T03:35:47.014Z,966.09
2018-10-12T03:36:47.014Z,966.10
2018-10-12T03:37:47.013Z,966.10
2018-10-12T03:38:47.064Z,966.10
2018-10-12T03:39:47.025Z,966.14
2018-10-12T03:40:47.032Z,966.10
2018-10-12T03:41:47.041Z,966.13
2018-10-12T03:42:47.032Z,966.10
2018-10-12T03:43:47.034Z,966.10
2018-10-12T03:44:47.037Z,966.14
2018-10-12T03:45:47.037Z,966.11
2018-10-12T03:46:47.041Z,966.16
2018-10-12T03:47:47.047Z,966.16
2018-10-12T03:48:47.052Z,966.16
2018-10-12T03:49:47.049Z,966.15
2018-10-12T03:50:47.053Z,966.09
2018-10-12T03:51:47.128Z,966.20
2018-10-12T03:52:47.057Z,966.18
2018-10-12T03:53:47.061Z,966.19
2018-10-12T03:54:47.072Z,966.19
2018-10-12T03:55:47.064Z,966.17
2018-10-12T03:56:47.065Z,966.22
2018-10-12T03:57:47.095Z,966.25
2018-10-12T03:58:47.073Z,966.20
2018-10-12T03:59:47.075Z,966.23
2018-10-12T04:00:47.079Z,966.28
2018-10-12T04:01:47.078Z,966.27
2018-10-12T04:02:47.115Z,966.29
2018-10-12T04:03:47.087Z,966.29
2018-10-12T04:04:47.089Z,966.36
2018-10-12T04:05:47.103Z,966.37
2018-10-12T04:06:47.104Z,966.41
2018-10-12T04:07:47.102Z,966.40
2018-10-12T04:08:47.104Z,966.44
2018-10-12T04:09:47.102Z,966.43
2018-10-12T04:10:47.105Z,966.44
2018-10-12T04:11:47.105Z,966.45
2018-10-12T04:12:47.109Z,966.47
2018-10-12T04:13:47.108Z,966.52
2018-10-12T04:14:47.113Z,966.51
2018-10-12T04:15:47.119Z,966.51
2018-10-12T04:16:47.120Z,966.60
2018-10-12T04:17:47.121Z,966.57
2018-10-12T04:18:47.123Z,966.53
2018-10-12T04:19:47.130Z,966.58
2018-10-12T04:20:47.125Z,966.62
2018-10-12T04:21:47.129Z,966.62
2018-10-12T04:22:47.131Z,966.65
2018-10-12T04:23:47.143Z,966.68
2018-10-12T04:24:47.135Z,966.71
2018-10-12T04:25:47.137Z,966.70
2018-10-12T04:26:47.141Z,966.72
2018-10-12T04:27:47.141Z,966.73
2018-10-12T04:28:47.154Z,966.75
2018-10-12T04:29:47.147Z,966.79
2018-10-12T04:30:47.153Z,966.83
2018-10-12T04:31:47.151Z,966.87
2018-10-12T04:32:47.153Z,966.89
2018-10-12T04:33:47.160Z,966.91
2018-10-12T04:34:47.159Z,966.90
2018-10-12T04:35:47.161Z,966.88
2018-10-12T04:36:47.163Z,966.85
2018-10-12T04:37:47.163Z,966.83
2018-10-12T04:38:47.169Z,966.84
2018-10-12T04:39:47.172Z,966.85
2018-10-12T04:40:47.172Z,966.83
2018-10-12T04:41:47.172Z,966.87
2018-10-12T04:42:47.179Z,966.83
2018-10-12T04:43:47.175Z,966.86
2018-10-12T04:44:47.179Z,966.89
2018-10-12T04:45:47.181Z,966.89
2018-10-12T04:46:47.182Z,966.89
2018-10-12T04:47:47.185Z,966.89
2018-10-12T04:48:47.204Z,966.87
2018-10-12T04:49:47.192Z,966.86
2018-10-12T04:50:47.191Z,966.90
2018-10-12T04:51:47.199Z,966.85
2018-10-12T04:52:47.194Z,966.88
2018-10-12T04:53:47.313Z,966.91
2018-10-12T04:54:47.198Z,966.89
2018-10-12T04:55:47.201Z,966.96
2018-10-12T04:56:47.208Z,966.96
2018-10-12T04:57:47.204Z,966.95
2018-10-12T04:58:47.207Z,966.98
2018-10-12T04:59:47.211Z,967.05
2018-10-12T05:00:47.271Z,967.06
2018-10-12T05:01:47.224Z,967.09
2018-10-12T05:02:47.215Z,967.04
2018-10-12T05:03:47.221Z,967.08
2018-10-12T05:04:47.219Z,967.10
2018-10-12T05:05:47.237Z,967.09
2018-10-12T05:06:47.222Z,967.08
2018-10-12T05:07:47.253Z,967.07
2018-10-12T05:08:47.226Z,967.06
2018-10-12T05:09:47.236Z,967.05
2018-10-12T05:10:47.236Z,967.06
2018-10-12T05:11:47.235Z,967.10
2018-10-12T05:12:47.237Z,967.07
2018-10-12T05:13:47.238Z,967.05
2018-10-12T05:14:47.251Z,967.10
2018-10-12T05:15:47.242Z,967.08
2018-10-12T05:16:47.244Z,967.07
2018-10-12T05:17:47.248Z,967.10
2018-10-12T05:18:47.250Z,967.15
2018-10-12T05:19:47.251Z,967.14
2018-10-12T05:20:47.253Z,967.18
2018-10-12T05:21:47.256Z,967.21
2018-10-12T05:22:47.259Z,967.18
2018-10-12T05:23:47.257Z,967.23
2018-10-12T05:24:47.262Z,967.25
2018-10-12T05:25:47.262Z,967.27
2018-10-12T05:26:47.259Z,967.27
2018-10-12T05:27:47.264Z,967.30
2018-10-12T05:28:47.270Z,967.30
2018-10-12T05:29:47.269Z,967.31
2018-10-12T05:30:47.273Z,967.34
2018-10-12T05:31:47.273Z,967.40
2018-10-12T05:32:47.277Z,967.41
2018-10-12T05:33:47.305Z,967.46
2018-10-12T05:34:47.278Z,967.39
2018-10-12T05:35:47.283Z,967.43
2018-10-12T05:36:47.282Z,967.42
2018-10-12T05:37:47.284Z,967.41
2018-10-12T05:38:47.285Z,967.44
2018-10-12T05:39:47.288Z,967.47
2018-10-12T05:40:47.293Z,967.45
2018-10-12T05:41:47.291Z,967.44
2018-10-12T05:42:47.336Z,967.50
2018-10-12T05:43:47.373Z,967.53
2018-10-12T05:44:47.297Z,967.53
2018-10-12T05:45:47.315Z,967.47
2018-10-12T05:46:47.301Z,967.53
2018-10-12T05:47:47.300Z,967.56
2018-10-12T05:48:47.366Z,967.51
2018-10-12T05:49:47.307Z,967.53
2018-10-12T05:50:47.308Z,967.52
2018-10-12T05:51:47.311Z,967.55
2018-10-12T05:52:47.311Z,967.55
2018-10-12T05:53:47.312Z,967.56
2018-10-12T05:54:47.317Z,967.59
2018-10-12T05:55:47.376Z,967.62
2018-10-12T05:56:47.317Z,967.61
2018-10-12T05:57:47.320Z,967.61
2018-10-12T05:58:47.319Z,967.64
2018-10-12T05:59:47.323Z,967.63
2018-10-12T06:00:47.325Z,967.66
2018-10-12T06:01:47.330Z,967.61
2018-10-12T06:02:47.327Z,967.64
2018-10-12T06:03:47.333Z,967.63
2018-10-12T06:04:47.340Z,967.67
2018-10-12T06:05:47.333Z,967.68
2018-10-12T06:06:47.335Z,967.69
2018-10-12T06:07:47.341Z,967.68
2018-10-12T06:08:47.340Z,967.65
2018-10-12T06:09:47.445Z,967.72
2018-10-12T06:10:47.338Z,967.74
2018-10-12T06:11:47.344Z,967.80
2018-10-12T06:12:47.385Z,967.78
2018-10-12T06:13:47.362Z,967.83
2018-10-12T06:14:47.347Z,967.84
2018-10-12T06:15:47.422Z,967.83
2018-10-12T06:16:47.357Z,967.90
2018-10-12T06:17:47.354Z,967.94
2018-10-12T06:18:47.356Z,967.98
2018-10-12T06:19:47.358Z,968.02
2018-10-12T06:20:47.362Z,968.02
2018-10-12T06:21:47.363Z,968.07
2018-10-12T06:22:47.364Z,968.18
2018-10-12T06:23:47.367Z,968.28
2018-10-12T06:24:47.367Z,968.39
2018-10-12T06:25:47.373Z,968.54
2018-10-12T06:26:47.434Z,968.55
2018-10-12T06:27:47.383Z,968.63
2018-10-12T06:28:47.383Z,968.71
2018-10-12T06:29:47.383Z,968.92
2018-10-12T06:30:47.391Z,969.27
2018-10-12T06:31:47.393Z,969.46
2018-10-12T06:32:47.457Z,969.47
2018-10-12T06:33:47.400Z,969.55
2018-10-12T06:34:47.411Z,969.50
2018-10-12T06:35:47.410Z,969.31
2018-10-12T06:36:47.415Z,969.08
2018-10-12T06:37:47.444Z,968.98
2018-10-12T06:38:47.426Z,968.95
2018-10-12T06:39:47.430Z,968.88
2018-10-12T06:40:47.437Z,968.87
2018-10-12T06:41:47.589Z,968.88
2018-10-12T06:42:47.450Z,968.88
2018-10-12T06:43:47.450Z,968.85
2018-10-12T06:44:47.456Z,968.87
2018-10-12T06:45:47.503Z,968.92
2018-10-12T06:46:47.594Z,968.88
2018-10-12T06:47:47.473Z,968.85
2018-10-12T06:48:47.478Z,968.85
2018-10-12T06:49:47.484Z,968.86
2018-10-12T06:50:47.489Z,968.89
2018-10-12T06:51:47.496Z,968.95
2018-10-12T06:52:47.501Z,968.95
2018-10-12T06:53:47.555Z,968.97
2018-10-12T06:54:47.517Z,968.96
2018-10-12T06:55:47.522Z,969.03
2018-10-12T06:56:47.529Z,968.95
2018-10-12T06:57:47.533Z,969.05
2018-10-12T06:58:47.542Z,969.07
2018-10-12T06:59:47.570Z,969.05
2018-10-12T07:00:47.558Z,969.11
2018-10-12T07:01:47.563Z,969.15
2018-10-12T07:02:47.569Z,969.21
2018-10-12T07:03:47.577Z,969.32
2018-10-12T07:04:47.590Z,969.33
2018-10-12T07:05:47.668Z,969.34
2018-10-12T07:06:47.604Z,969.40
2018-10-12T07:07:47.609Z,969.49
2018-10-12T07:08:47.612Z,969.54
2018-10-12T07:09:47.624Z,969.46
2018-10-12T07:10:47.633Z,969.48
2018-10-12T07:11:47.645Z,969.64
2018-10-12T07:12:47.649Z,969.85
2018-10-12T07:13:47.688Z,969.90
2018-10-12T07:14:47.666Z,970.05
2018-10-12T07:15:47.671Z,970.17
2018-10-12T07:16:47.678Z,970.14
2018-10-12T07:17:47.685Z,970.01
2018-10-12T07:18:47.698Z,969.83
2018-10-12T07:19:47.704Z,969.69
2018-10-12T07:20:47.716Z,969.55
2018-10-12T07:21:47.723Z,969.43
2018-10-12T07:22:47.744Z,969.35
2018-10-12T07:23:47.740Z,969.27
2018-10-12T07:24:47.752Z,969.24
2018-10-12T07:25:47.765Z,969.20
2018-10-12T07:26:47.765Z,969.23
2018-10-12T07:27:47.773Z,969.19
2018-10-12T07:28:47.803Z,969.17
2018-10-12T07:29:47.787Z,969.17
2018-10-12T07:30:47.802Z,969.18
2018-10-12T07:31:47.829Z,969.17
2018-10-12T07:32:47.815Z,969.14
2018-10-12T07:33:47.820Z,969.14
2018-10-12T07:34:47.835Z,969.18
2018-10-12T07:35:47.833Z,969.20
2018-10-12T07:36:47.848Z,969.29
2018-10-12T07:37:47.913Z,969.39
2018-10-12T07:38:47.856Z,969.37
2018-10-12T07:39:47.910Z,969.39
2018-10-12T07:40:49.276Z,969.48
2018-10-12T07:41:56.045Z,969.50
2018-10-12T07:43:40.830Z,969.45
2018-10-12T07:44:40.804Z,969.43
2018-10-12T07:45:40.827Z,969.33
2018-10-12T07:46:40.802Z,969.29
2018-10-12T07:47:40.796Z,969.36
2018-10-12T07:48:47.934Z,969.32
2018-10-12T07:50:33.765Z,969.48
2018-10-12T07:51:33.678Z,969.57
2018-10-12T07:52:33.686Z,969.46
2018-10-12T07:53:33.691Z,969.42
2018-10-12T07:54:33.697Z,969.41
2018-10-12T07:55:33.711Z,969.45
2018-10-12T07:56:33.708Z,969.43
2018-10-12T07:57:33.806Z,969.43
2018-10-12T07:58:33.740Z,969.44
2018-10-12T07:59:33.821Z,969.49
2018-10-12T08:00:33.945Z,969.46
2018-10-12T08:01:33.734Z,969.60
2018-10-12T08:02:33.738Z,969.54
2018-10-12T08:03:33.746Z,969.53
2018-10-12T08:04:33.750Z,969.56
2018-10-12T08:05:33.886Z,969.66
2018-10-12T08:06:33.775Z,969.71
2018-10-12T08:07:33.766Z,969.67
2018-10-12T08:08:33.777Z,969.61
2018-10-12T08:09:33.838Z,969.64
2018-10-12T08:10:33.838Z,969.73
2018-10-12T08:11:33.788Z,969.71
2018-10-12T08:12:33.794Z,969.61
2018-10-12T08:13:33.857Z,969.64
2018-10-12T08:14:33.804Z,969.67
2018-10-12T08:15:33.923Z,969.86
2018-10-12T08:16:33.822Z,970.15
2018-10-12T08:17:33.823Z,970.16
2018-10-12T08:18:33.826Z,970.07
2018-10-12T08:19:33.831Z,970.08
2018-10-12T08:20:34.001Z,970.28
2018-10-12T08:21:33.840Z,970.47
2018-10-12T08:22:33.848Z,970.53
2018-10-12T08:23:33.853Z,970.56
2018-10-12T08:24:33.859Z,970.61
2018-10-12T08:25:34.005Z,970.55
2018-10-12T08:26:33.872Z,970.56
2018-10-12T08:27:33.873Z,970.59
2018-10-12T08:28:33.885Z,970.61
2018-10-12T08:29:33.889Z,970.64
2018-10-12T08:30:33.961Z,970.66
2018-10-12T08:31:33.964Z,970.64
2018-10-12T08:32:33.916Z,970.65
2018-10-12T08:33:33.924Z,970.67
2018-10-12T08:34:33.932Z,970.72
2018-10-12T08:35:34.081Z,970.68
2018-10-12T08:36:34.109Z,970.65
2018-10-12T08:37:33.962Z,970.69
2018-10-12T08:38:33.972Z,970.77
2018-10-12T08:39:33.983Z,970.71
2018-10-12T08:40:34.050Z,970.72
2018-10-12T08:41:34.006Z,970.71
2018-10-12T08:42:34.017Z,970.64
2018-10-12T08:43:34.029Z,970.66
2018-10-12T08:44:34.041Z,970.65
2018-10-12T08:45:34.185Z,970.65
2018-10-12T08:46:34.063Z,970.68
2018-10-12T08:47:34.077Z,970.68
2018-10-12T08:48:34.092Z,970.71
2018-10-12T08:49:34.104Z,970.72
2018-10-12T08:50:34.191Z,970.69
2018-10-12T08:51:34.132Z,970.65
2018-10-12T08:52:34.145Z,970.70
2018-10-12T08:53:34.167Z,970.71
2018-10-12T08:54:34.174Z,970.79
2018-10-12T08:55:34.480Z,970.74
2018-10-12T08:56:34.199Z,970.74
2018-10-12T08:57:34.211Z,970.74
2018-10-12T08:58:34.242Z,970.78
2018-10-12T08:59:34.245Z,970.78
2018-10-12T09:00:34.262Z,970.79
2018-10-12T09:01:34.272Z,970.81
2018-10-12T09:02:34.295Z,970.83
2018-10-12T09:03:34.304Z,970.79
2018-10-12T09:04:34.317Z,970.79
2018-10-12T09:05:34.333Z,970.82
2018-10-12T09:06:34.351Z,970.76
2018-10-12T09:07:34.364Z,970.80
2018-10-12T09:08:34.383Z,970.79
2018-10-12T09:09:34.391Z,970.82
2018-10-12T09:10:34.413Z,970.79
2018-10-12T09:11:34.427Z,970.82
2018-10-12T09:12:34.443Z,970.85
2018-10-12T09:13:34.459Z,970.82
2018-10-12T09:14:34.475Z,970.81
2018-10-12T09:15:34.489Z,970.73
2018-10-12T09:16:34.504Z,970.80
2018-10-12T09:17:34.520Z,970.80
2018-10-12T09:18:34.537Z,970.78
2018-10-12T09:19:34.559Z,970.81
2018-10-12T09:20:34.801Z,970.79
2018-10-12T09:21:34.591Z,970.83
2018-10-12T09:22:34.603Z,970.79
2018-10-12T09:23:34.622Z,970.79
2018-10-12T09:24:34.643Z,970.82
2018-10-12T09:25:34.657Z,970.87
2018-10-12T09:26:34.676Z,970.84
2018-10-12T09:27:34.689Z,970.82
2018-10-12T09:28:34.704Z,970.83
2018-10-12T09:29:34.728Z,970.86
2018-10-12T09:30:34.740Z,970.83
2018-10-12T09:31:34.757Z,970.88
2018-10-12T09:32:34.773Z,970.87
2018-10-12T09:33:34.794Z,970.88
2018-10-12T09:34:34.807Z,970.90
2018-10-12T09:35:34.827Z,970.88
2018-10-12T09:36:34.964Z,970.84
2018-10-12T09:37:34.860Z,970.85
2018-10-12T09:38:34.880Z,970.88
2018-10-12T09:39:34.898Z,970.83
2018-10-12T09:40:34.921Z,970.87
2018-10-12T09:41:34.933Z,970.91
2018-10-12T09:42:34.953Z,970.92
2018-10-12T09:43:34.976Z,970.91
2018-10-12T09:44:34.991Z,970.92
2018-10-12T09:45:35.011Z,970.92
2018-10-12T09:46:35.027Z,970.93
2018-10-12T09:47:35.049Z,970.95
2018-10-12T09:48:35.075Z,970.96
2018-10-12T09:49:35.088Z,970.94
2018-10-12T09:50:35.108Z,970.96
2018-10-12T09:51:35.124Z,970.97
2018-10-12T09:52:35.145Z,970.98
2018-10-12T09:53:35.162Z,971.01
2018-10-12T09:54:35.186Z,970.98
2018-10-12T09:55:35.200Z,970.98
2018-10-12T09:56:35.222Z,970.94
2018-10-12T09:57:35.241Z,970.91
2018-10-12T09:58:35.264Z,970.63
2018-10-12T09:59:35.279Z,970.40
2018-10-12T10:00:35.297Z,970.39
2018-10-12T10:01:35.348Z,970.45
2018-10-12T10:02:35.337Z,970.42
2018-10-12T10:03:35.357Z,970.43
2018-10-12T10:04:35.373Z,970.42
2018-10-12T10:05:35.388Z,970.49
2018-10-12T10:06:35.405Z,970.48
2018-10-12T10:07:35.488Z,970.43
2018-10-12T10:08:36.048Z,970.41
2018-10-12T10:09:35.461Z,970.42
2018-10-12T10:10:35.472Z,970.47
2018-10-12T10:11:35.488Z,970.48
2018-10-12T10:12:35.499Z,970.46
2018-10-12T10:13:35.537Z,970.44
2018-10-12T10:14:35.527Z,970.41
2018-10-12T10:15:35.637Z,970.45
2018-10-12T10:16:35.552Z,970.50
2018-10-12T10:17:35.562Z,970.49
2018-10-12T10:18:35.576Z,970.45
2018-10-12T10:19:35.589Z,970.51
2018-10-12T10:20:35.600Z,970.55
2018-10-12T10:21:35.610Z,970.54
2018-10-12T10:22:35.655Z,970.50
2018-10-12T10:23:35.641Z,970.51
2018-10-12T10:24:35.641Z,970.54
2018-10-12T10:25:35.656Z,970.55
2018-10-12T10:26:35.660Z,970.51
2018-10-12T10:27:35.671Z,970.57
2018-10-12T10:28:35.686Z,970.60
2018-10-12T10:29:35.688Z,970.60
2018-10-12T10:30:35.693Z,970.61
2018-10-12T10:31:35.707Z,970.56
2018-10-12T10:32:35.718Z,970.59
2018-10-12T10:33:35.724Z,970.58
2018-10-12T10:34:35.732Z,970.58
2018-10-12T10:35:35.749Z,970.54
2018-10-12T10:36:35.753Z,970.51
2018-10-12T10:37:35.760Z,970.53
2018-10-12T10:38:35.769Z,970.63
2018-10-12T10:39:35.774Z,970.55
2018-10-12T10:40:35.783Z,970.56
2018-10-12T10:41:35.790Z,970.53
2018-10-12T10:42:35.800Z,970.55
2018-10-12T10:43:35.807Z,970.51
2018-10-12T10:44:35.815Z,970.58
2018-10-12T10:45:35.822Z,970.50
2018-10-12T10:46:35.829Z,970.55
2018-10-12T10:47:35.844Z,970.54
2018-10-12T10:48:35.845Z,970.52
2018-10-12T10:49:35.853Z,970.51
2018-10-12T10:50:35.860Z,970.51
2018-10-12T10:51:35.868Z,970.59
2018-10-12T10:52:35.876Z,970.49
2018-10-12T10:53:35.934Z,970.48
2018-10-12T10:54:35.890Z,970.50
2018-10-12T10:55:35.899Z,970.44
2018-10-12T10:56:35.904Z,970.46
2018-10-12T10:57:35.913Z,970.44
2018-10-12T10:58:35.925Z,970.47
2018-10-12T10:59:35.931Z,970.45
2018-10-12T11:00:35.937Z,970.43
2018-10-12T11:01:35.942Z,970.47
2018-10-12T11:02:35.949Z,970.39
2018-10-12T11:03:35.957Z,970.40
2018-10-12T11:04:35.966Z,970.39
2018-10-12T11:05:35.970Z,970.36
2018-10-12T11:06:35.979Z,970.41
2018-10-12T11:07:35.985Z,970.33
2018-10-12T11:08:35.994Z,970.32
2018-10-12T11:09:36.001Z,970.34
2018-10-12T11:10:36.007Z,970.32
2018-10-12T11:11:36.037Z,970.33
2018-10-12T11:12:36.103Z,970.28
2018-10-12T11:13:36.046Z,970.32
2018-10-12T11:14:36.036Z,970.28
2018-10-12T11:15:36.043Z,970.24
2018-10-12T11:16:36.052Z,970.23
2018-10-12T11:17:36.063Z,970.24
2018-10-12T11:18:36.085Z,970.21
2018-10-12T11:19:36.127Z,970.21
2018-10-12T11:20:36.099Z,970.20
2018-10-12T11:21:36.085Z,970.24
2018-10-12T11:22:36.093Z,970.20
2018-10-12T11:23:36.100Z,970.20
2018-10-12T11:24:36.190Z,970.19
2018-10-12T11:25:36.131Z,970.15
2018-10-12T11:26:36.134Z,970.17
2018-10-12T11:27:36.127Z,970.19
2018-10-12T11:28:36.134Z,970.14
2018-10-12T11:29:36.141Z,970.19
2018-10-12T11:30:36.150Z,970.19
2018-10-12T11:31:36.212Z,970.18
2018-10-12T11:32:36.174Z,970.15
2018-10-12T11:33:36.169Z,970.13
2018-10-12T11:34:36.175Z,970.10
2018-10-12T11:35:36.183Z,970.07
2018-10-12T11:36:36.192Z,970.06
2018-10-12T11:37:36.195Z,970.06
2018-10-12T11:38:36.202Z,970.08
2018-10-12T11:39:36.212Z,970.09
2018-10-12T11:40:36.216Z,970.05
2018-10-12T11:41:36.222Z,970.10
2018-10-12T11:42:36.230Z,970.08
2018-10-12T11:43:36.239Z,970.10
2018-10-12T11:44:36.244Z,970.05
2018-10-12T11:45:36.250Z,970.05
2018-10-12T11:46:36.258Z,970.03
2018-10-12T11:47:36.288Z,970.02
2018-10-12T11:48:36.272Z,970.05
2018-10-12T11:49:36.278Z,970.03
2018-10-12T11:50:36.310Z,970.02
2018-10-12T11:51:36.310Z,970.04
2018-10-12T11:52:36.323Z,970.05
2018-10-12T11:53:36.300Z,970.06
2018-10-12T11:54:36.311Z,970.04
2018-10-12T11:55:36.318Z,970.03
2018-10-12T11:56:36.326Z,970.04
2018-10-12T11:57:36.334Z,970.03
2018-10-12T11:58:36.338Z,970.00
2018-10-12T11:59:36.345Z,970.03
2018-10-12T12:00:36.352Z,969.97
2018-10-12T12:01:36.361Z,969.99
2018-10-12T12:02:36.369Z,969.91
2018-10-12T12:03:36.394Z,969.95
2018-10-12T12:04:36.416Z,969.93
2018-10-12T12:05:36.395Z,969.94
2018-10-12T12:06:36.393Z,970.01
2018-10-12T12:07:36.425Z,970.02
2018-10-12T12:08:36.404Z,970.04
2018-10-12T12:09:36.414Z,970.01
2018-10-12T12:10:36.424Z,970.03
2018-10-12T12:11:36.425Z,970.02
2018-10-12T12:12:36.435Z,969.99
2018-10-12T12:13:36.517Z,969.96
2018-10-12T12:14:36.445Z,969.97
2018-10-12T12:15:36.455Z,969.95
2018-10-12T12:16:36.460Z,969.97
2018-10-12T12:17:36.498Z,970.02
2018-10-12T12:18:36.474Z,970.00
2018-10-12T12:19:36.488Z,970.02
2018-10-12T12:20:36.486Z,970.00
2018-10-12T12:21:36.492Z,969.97
2018-10-12T12:22:36.500Z,969.98
2018-10-12T12:23:36.505Z,969.91
2018-10-12T12:24:36.513Z,969.90
2018-10-12T12:25:36.520Z,969.93
2018-10-12T12:26:36.526Z,969.95
2018-10-12T12:27:36.532Z,969.98
2018-10-12T12:28:36.540Z,970.02
2018-10-12T12:29:36.547Z,970.02
2018-10-12T12:30:36.560Z,970.05